Time;durP1;ratioP1;P1;durP2;ratioP2;P2;SDS_P1;SDS_P2;PMS_P1;PMS_P2;Temp;Humidity;BMP_temperature;BMP_pressure;BME280_temperature;BME280_humidity;BME280_pressure;Samples;Min_cycle;Max_cycle;Signal;HPM_P1;HPM_P2
2022/04/02 00:00:43;;;;;;;;;;;1.20;99.90;;;;;;4970197;28;19961;-75
2022/04/02 00:03:09;;;;;;;;;;;1.20;99.90;;;;;;4972795;28;19933;-75
2022/04/02 00:05:34;;;;;;;;;;;1.20;99.90;;;;;;4972419;28;19922;-75
2022/04/02 00:08:00;;;;;;;;;;;1.20;99.90;;;;;;4970532;28;19928;-75
2022/04/02 00:10:25;;;;;;;;;;;1.10;99.90;;;;;;4973227;28;20521;-75
2022/04/02 00:12:53;;;;;;;;;;;1.20;99.90;;;;;;4972498;28;19969;-75
2022/04/02 00:15:19;;;;;;;;;;;1.20;99.90;;;;;;4957562;28;19921;-75
2022/04/02 00:17:44;;;;;;;;;;;1.10;99.90;;;;;;4972437;28;19973;-75
2022/04/02 00:20:10;;;;;;;;;;;1.10;99.90;;;;;;4969455;28;19977;-75
2022/04/02 00:22:36;;;;;;;;;;;1.10;99.90;;;;;;4954213;28;20010;-75
2022/04/02 00:25:01;;;;;;;;;;;1.00;99.90;;;;;;4970879;28;20025;-75
2022/04/02 00:27:27;;;;;;;;;;;1.10;99.90;;;;;;4970395;28;19976;-75
2022/04/02 00:29:52;;;;;;;;;;;1.10;99.90;;;;;;4968689;28;20381;-75
2022/04/02 00:32:18;;;;;;;;;;;1.00;99.90;;;;;;4957654;28;19973;-75
2022/04/02 00:34:43;;;;;;;;;;;1.10;99.90;;;;;;4970720;28;20406;-75
2022/04/02 00:37:09;;;;;;;;;;;1.10;99.90;;;;;;4969068;28;19930;-75
2022/04/02 00:39:34;;;;;;;;;;;1.10;99.90;;;;;;4969400;28;19921;-75
2022/04/02 00:42:00;;;;;;;;;;;1.10;99.90;;;;;;4970896;28;20337;-75
2022/04/02 00:44:26;;;;;;;;;;;1.10;99.90;;;;;;4956626;28;19928;-75
2022/04/02 00:46:51;;;;;;;;;;;1.10;99.90;;;;;;4967020;28;19929;-75
2022/04/02 00:49:17;;;;;;;;;;;1.10;99.90;;;;;;4955997;28;19926;-75
2022/04/02 00:51:43;;;;;;;;;;;1.10;99.90;;;;;;4971547;28;19922;-75
2022/04/02 00:54:09;;;;;;;;;;;1.10;99.90;;;;;;4956307;28;19960;-75
2022/04/02 00:56:38;;;;;;;;;;;1.10;99.90;;;;;;4969492;28;20288;-75
2022/04/02 00:59:04;;;;;;;;;;;1.10;99.90;;;;;;4981840;28;19922;-75
2022/04/02 01:01:31;;;;;;;;;;;1.10;99.90;;;;;;4953497;28;19937;-75
2022/04/02 01:03:57;;;;;;;;;;;1.00;99.90;;;;;;4969857;28;19922;-75
2022/04/02 01:06:23;;;;;;;;;;;1.00;99.90;;;;;;4969409;28;19929;-75
2022/04/02 01:08:49;;;;;;;;;;;1.00;99.90;;;;;;4953770;28;19929;-75
2022/04/02 01:11:15;;;;;;;;;;;1.00;99.90;;;;;;4985378;28;19922;-75
2022/04/02 01:13:40;;;;;;;;;;;1.00;99.90;;;;;;4966734;28;19933;-75
2022/04/02 01:16:06;;;;;;;;;;;0.90;99.90;;;;;;4968118;28;19969;-75
2022/04/02 01:18:31;;;;;;;;;;;0.90;99.90;;;;;;4970610;28;19937;-75
2022/04/02 01:20:58;;;;;;;;;;;0.80;99.90;;;;;;4984883;28;20371;-75
2022/04/02 01:23:29;;;;;;;;;;;0.80;99.90;;;;;;4971620;28;20435;-75
2022/04/02 01:26:01;;;;;;;;;;;0.80;99.90;;;;;;4971630;28;20921;-75
2022/04/02 01:28:33;;;;;;;;;;;0.80;99.90;;;;;;4967995;28;20021;-75
2022/04/02 01:31:00;;;;;;;;;;;0.80;99.90;;;;;;4970042;28;20194;-76
2022/04/02 01:33:25;;;;;;;;;;;0.80;99.90;;;;;;4973492;28;19928;-75
2022/04/02 01:36:01;;;;;;;;;;;0.70;99.90;;;;;;4972709;28;19998;-75
2022/04/02 01:38:27;;;;;;;;;;;0.70;99.90;;;;;;4973673;28;20300;-75
2022/04/02 01:40:52;;;;;;;;;;;0.70;99.90;;;;;;4967779;28;19949;-75
2022/04/02 01:43:17;;;;;;;;;;;0.60;99.90;;;;;;4972258;28;19930;-75
2022/04/02 01:45:43;;;;;;;;;;;0.60;99.90;;;;;;4971963;28;19966;-75
2022/04/02 01:48:08;;;;;;;;;;;0.60;99.90;;;;;;4970251;28;20545;-75
2022/04/02 01:50:34;;;;;;;;;;;0.60;99.90;;;;;;4983646;28;19929;-75
2022/04/02 01:52:59;;;;;;;;;;;0.60;99.90;;;;;;4972243;28;19925;-75
2022/04/02 01:55:25;;;;;;;;;;;0.60;99.90;;;;;;4970495;28;19922;-76
2022/04/02 01:57:51;;;;;;;;;;;0.60;99.90;;;;;;4968699;28;19928;-75
2022/04/02 02:00:16;;;;;;;;;;;0.60;99.90;;;;;;4970631;28;19957;-75
2022/04/02 02:02:42;;;;;;;;;;;0.60;99.90;;;;;;4970696;28;19929;-75
2022/04/02 02:05:07;;;;;;;;;;;0.60;99.90;;;;;;4969877;28;19921;-75
2022/04/02 02:07:33;;;;;;;;;;;0.50;99.90;;;;;;4969602;28;19922;-75
2022/04/02 02:09:58;;;;;;;;;;;0.50;99.90;;;;;;4969996;28;20409;-75
2022/04/02 02:12:24;;;;;;;;;;;0.50;99.90;;;;;;4953075;28;19972;-75
2022/04/02 02:14:50;;;;;;;;;;;0.50;99.90;;;;;;4986618;28;20031;-75
2022/04/02 02:17:19;;;;;;;;;;;0.50;99.90;;;;;;4966714;28;19922;-75
2022/04/02 02:19:44;;;;;;;;;;;0.50;99.90;;;;;;4969919;28;20080;-75
2022/04/02 02:22:11;;;;;;;;;;;0.40;99.90;;;;;;4970637;28;19990;-75
2022/04/02 02:24:37;;;;;;;;;;;0.40;99.90;;;;;;4971186;28;20378;-75
2022/04/02 02:27:02;;;;;;;;;;;0.40;99.90;;;;;;4976219;28;19929;-75
2022/04/02 02:29:28;;;;;;;;;;;0.40;99.90;;;;;;4977002;28;19937;-75
2022/04/02 02:31:53;;;;;;;;;;;0.40;99.90;;;;;;4977228;28;20676;-75
2022/04/02 02:37:03;;;;;;;;;;;0.40;99.90;;;;;;4974609;28;19922;-75
2022/04/02 02:39:29;;;;;;;;;;;0.40;99.90;;;;;;4976594;28;20021;-75
2022/04/02 02:41:54;;;;;;;;;;;0.30;99.90;;;;;;4976011;28;19937;-75
2022/04/02 02:44:20;;;;;;;;;;;0.40;99.90;;;;;;4974057;28;19930;-75
2022/04/02 02:46:45;;;;;;;;;;;0.30;99.90;;;;;;4975239;28;19925;-75
2022/04/02 02:49:11;;;;;;;;;;;0.30;99.90;;;;;;4974441;28;19968;-75
2022/04/02 02:51:36;;;;;;;;;;;0.30;99.90;;;;;;4976155;28;19928;-75
2022/04/02 02:54:02;;;;;;;;;;;0.30;99.90;;;;;;4958077;28;20019;-75
2022/04/02 02:56:27;;;;;;;;;;;0.30;99.90;;;;;;4976489;28;19930;-75
2022/04/02 02:58:53;;;;;;;;;;;0.20;99.90;;;;;;4958112;28;20050;-75
2022/04/02 03:01:18;;;;;;;;;;;0.20;99.90;;;;;;4972074;28;20362;-75
2022/04/02 03:03:44;;;;;;;;;;;0.20;99.90;;;;;;4974524;28;19937;-75
2022/04/02 03:06:09;;;;;;;;;;;0.20;99.90;;;;;;4997410;23;19952;-77
2022/04/02 03:08:35;;;;;;;;;;;0.10;99.90;;;;;;4966924;28;20664;-78
2022/04/02 03:11:00;;;;;;;;;;;0.10;99.90;;;;;;4970243;28;19926;-76
2022/04/02 03:13:27;;;;;;;;;;;0.10;99.90;;;;;;4970789;28;19922;-75
2022/04/02 03:15:52;;;;;;;;;;;0.10;99.90;;;;;;4968114;28;19966;-75
2022/04/02 03:18:18;;;;;;;;;;;0.10;99.90;;;;;;4962341;28;20395;-74
2022/04/02 03:20:43;;;;;;;;;;;0.00;99.90;;;;;;4966187;28;19984;-77
2022/04/02 03:23:09;;;;;;;;;;;0.00;99.90;;;;;;4967834;28;19922;-76
2022/04/02 03:25:35;;;;;;;;;;;0.10;99.90;;;;;;4954476;28;19929;-77
2022/04/02 03:28:01;;;;;;;;;;;0.10;99.90;;;;;;4969819;28;20388;-76
2022/04/02 03:30:27;;;;;;;;;;;0.00;99.90;;;;;;4972512;28;19930;-76
2022/04/02 03:32:52;;;;;;;;;;;0.10;99.90;;;;;;4962982;28;19964;-76
2022/04/02 03:35:18;;;;;;;;;;;0.00;99.90;;;;;;4972626;28;19976;-76
2022/04/02 03:37:45;;;;;;;;;;;0.00;99.90;;;;;;4965505;28;19922;-76
2022/04/02 03:40:15;;;;;;;;;;;0.00;99.90;;;;;;4954346;28;19973;-75
2022/04/02 03:42:41;;;;;;;;;;;0.00;99.90;;;;;;4964757;28;19930;-75
2022/04/02 03:45:07;;;;;;;;;;;0.00;99.90;;;;;;4970753;28;19970;-76
2022/04/02 03:47:33;;;;;;;;;;;0.00;99.90;;;;;;4966466;28;19921;-75
2022/04/02 03:49:58;;;;;;;;;;;0.00;99.90;;;;;;4966325;28;19930;-76
2022/04/02 03:52:24;;;;;;;;;;;0.00;99.90;;;;;;4959523;28;19929;-76
2022/04/02 03:54:49;;;;;;;;;;;-0.10;99.90;;;;;;4967428;28;20265;-76
2022/04/02 03:57:15;;;;;;;;;;;0.00;99.90;;;;;;4960744;28;19926;-75
2022/04/02 03:59:41;;;;;;;;;;;-0.10;99.90;;;;;;4967661;28;19926;-75
2022/04/02 04:02:07;;;;;;;;;;;-0.10;99.90;;;;;;4961228;28;19977;-77
2022/04/02 04:04:33;;;;;;;;;;;-0.10;99.90;;;;;;4958380;28;19968;-77
2022/04/02 04:06:59;;;;;;;;;;;-0.10;99.90;;;;;;4965999;28;20338;-77
2022/04/02 04:09:24;;;;;;;;;;;-0.10;99.90;;;;;;4968015;28;19925;-76
2022/04/02 04:11:50;;;;;;;;;;;0.00;99.90;;;;;;4967724;28;19937;-77
2022/04/02 04:14:16;;;;;;;;;;;0.00;99.90;;;;;;4963968;28;19928;-77
2022/04/02 04:16:41;;;;;;;;;;;-0.10;99.90;;;;;;4965039;28;19929;-77
2022/04/02 04:19:07;;;;;;;;;;;-0.10;99.90;;;;;;4962124;28;20387;-76
2022/04/02 04:21:34;;;;;;;;;;;-0.10;99.90;;;;;;4966620;28;19925;-77
2022/04/02 04:24:00;;;;;;;;;;;-0.10;99.90;;;;;;4967829;28;19979;-77
2022/04/02 04:26:25;;;;;;;;;;;-0.10;99.90;;;;;;4960398;28;20014;-76
2022/04/02 04:28:51;;;;;;;;;;;-0.10;99.90;;;;;;4964872;28;20300;-77
2022/04/02 04:31:17;;;;;;;;;;;0.00;99.90;;;;;;4967282;28;19968;-76
2022/04/02 04:33:43;;;;;;;;;;;0.00;99.90;;;;;;4963524;28;19930;-77
2022/04/02 04:36:09;;;;;;;;;;;0.00;99.90;;;;;;4965490;28;19922;-76
2022/04/02 04:38:34;;;;;;;;;;;0.10;99.90;;;;;;4945038;28;19929;-76
2022/04/02 04:41:01;;;;;;;;;;;0.10;99.90;;;;;;4965647;28;19929;-76
2022/04/02 04:43:27;;;;;;;;;;;0.10;99.90;;;;;;4966269;28;19922;-77
2022/04/02 04:45:53;;;;;;;;;;;0.00;99.90;;;;;;4967221;28;20861;-76
2022/04/02 04:48:20;;;;;;;;;;;0.00;99.90;;;;;;4964889;28;19922;-76
2022/04/02 04:50:45;;;;;;;;;;;0.00;99.90;;;;;;4961433;28;20426;-77
2022/04/02 04:53:11;;;;;;;;;;;0.00;99.90;;;;;;4965790;28;19969;-76
2022/04/02 04:55:36;;;;;;;;;;;-0.10;99.90;;;;;;4964581;28;20346;-77
2022/04/02 04:58:02;;;;;;;;;;;-0.10;99.90;;;;;;4962898;28;20287;-76
2022/04/02 05:00:27;;;;;;;;;;;-0.10;99.90;;;;;;4952780;28;19922;-77
2022/04/02 05:02:53;;;;;;;;;;;0.00;99.90;;;;;;4961816;28;19922;-77
2022/04/02 05:05:19;;;;;;;;;;;-0.10;99.90;;;;;;4950503;28;19936;-77
2022/04/02 05:07:44;;;;;;;;;;;0.00;99.90;;;;;;4964887;28;19926;-76
2022/04/02 05:10:10;;;;;;;;;;;-0.10;99.90;;;;;;4965887;28;20033;-77
2022/04/02 05:12:37;;;;;;;;;;;-0.10;99.90;;;;;;4962351;28;20331;-76
2022/04/02 05:15:03;;;;;;;;;;;-0.10;99.90;;;;;;4967052;28;19943;-76
2022/04/02 05:17:29;;;;;;;;;;;0.00;99.90;;;;;;4949094;28;19964;-77
2022/04/02 05:19:54;;;;;;;;;;;0.00;99.90;;;;;;4963220;28;20016;-77
2022/04/02 05:22:20;;;;;;;;;;;0.00;99.90;;;;;;4954197;28;19931;-77
2022/04/02 05:24:45;;;;;;;;;;;0.10;99.90;;;;;;4964839;28;20004;-76
2022/04/02 05:27:11;;;;;;;;;;;0.00;99.90;;;;;;4959300;28;19931;-76
2022/04/02 05:29:36;;;;;;;;;;;0.00;99.90;;;;;;4966763;28;19968;-77
2022/04/02 05:32:03;;;;;;;;;;;0.00;99.90;;;;;;4958105;28;20384;-76
2022/04/02 05:34:30;;;;;;;;;;;0.00;99.90;;;;;;4963156;28;19922;-76
2022/04/02 05:36:56;;;;;;;;;;;0.10;99.90;;;;;;4966127;28;19944;-77
2022/04/02 05:39:21;;;;;;;;;;;0.10;99.90;;;;;;4965083;28;20385;-76
2022/04/02 05:41:48;;;;;;;;;;;0.10;99.90;;;;;;4962716;28;19926;-77
2022/04/02 05:44:14;;;;;;;;;;;0.20;99.90;;;;;;4963102;28;19932;-77
2022/04/02 05:46:39;;;;;;;;;;;0.20;99.90;;;;;;4966649;28;20008;-77
2022/04/02 05:49:05;;;;;;;;;;;0.20;99.90;;;;;;4963052;28;20315;-77
2022/04/02 05:51:31;;;;;;;;;;;0.20;99.90;;;;;;4967000;28;20078;-77
2022/04/02 05:53:57;;;;;;;;;;;0.30;99.90;;;;;;4960962;28;19936;-77
2022/04/02 05:56:22;;;;;;;;;;;0.40;99.90;;;;;;4966950;28;19955;-77
2022/04/02 05:58:48;;;;;;;;;;;0.40;99.90;;;;;;4960210;28;20402;-76
2022/04/02 06:01:14;;;;;;;;;;;0.40;99.90;;;;;;4963739;28;19934;-78
2022/04/02 06:03:40;;;;;;;;;;;0.50;99.90;;;;;;4965860;28;19928;-78
2022/04/02 06:06:06;;;;;;;;;;;0.50;99.90;;;;;;4965296;28;19922;-77
2022/04/02 06:08:32;;;;;;;;;;;0.60;99.90;;;;;;4960083;28;20368;-75
2022/04/02 06:10:57;;;;;;;;;;;0.70;99.90;;;;;;4963695;28;19961;-76
2022/04/02 06:13:23;;;;;;;;;;;0.70;99.90;;;;;;4962322;28;20360;-76
2022/04/02 06:15:48;;;;;;;;;;;0.80;99.90;;;;;;4965832;28;19976;-76
2022/04/02 06:18:17;;;;;;;;;;;0.90;99.90;;;;;;4957853;28;20092;-76
2022/04/02 06:20:48;;;;;;;;;;;0.90;99.90;;;;;;4964607;28;20569;-76
2022/04/02 06:23:14;;;;;;;;;;;1.00;99.90;;;;;;4974753;28;19926;-76
2022/04/02 06:25:39;;;;;;;;;;;1.00;99.90;;;;;;4955969;28;20021;-77
2022/04/02 06:28:05;;;;;;;;;;;1.20;99.90;;;;;;4945605;28;19921;-77
2022/04/02 06:30:31;;;;;;;;;;;1.20;99.90;;;;;;4957443;28;19926;-77
2022/04/02 06:32:56;;;;;;;;;;;1.40;99.90;;;;;;4963703;28;20308;-77
2022/04/02 06:35:22;;;;;;;;;;;1.50;99.90;;;;;;4943312;28;19922;-77
2022/04/02 06:37:48;;;;;;;;;;;1.70;99.90;;;;;;4966260;28;20303;-78
2022/04/02 06:40:14;;;;;;;;;;;1.70;99.90;;;;;;4958893;28;19933;-78
2022/04/02 06:42:39;;;;;;;;;;;1.80;99.90;;;;;;4957304;28;19921;-79
2022/04/02 06:45:05;;;;;;;;;;;2.00;99.90;;;;;;4962983;28;19928;-78
2022/04/02 06:47:31;;;;;;;;;;;2.10;99.90;;;;;;4964950;28;19925;-78
2022/04/02 06:49:57;;;;;;;;;;;2.20;99.90;;;;;;4964145;28;19973;-78
2022/04/02 06:52:23;;;;;;;;;;;2.30;99.90;;;;;;4972188;28;19922;-78
2022/04/02 06:54:49;;;;;;;;;;;2.50;99.90;;;;;;4972529;28;20332;-78
2022/04/02 06:57:21;;;;;;;;;;;2.50;99.90;;;;;;4972392;28;19941;-76
2022/04/02 06:59:47;;;;;;;;;;;2.70;99.90;;;;;;4972121;28;19922;-77
2022/04/02 07:02:12;;;;;;;;;;;2.80;99.90;;;;;;4970346;28;19953;-77
2022/04/02 07:04:38;;;;;;;;;;;2.90;99.90;;;;;;4954429;28;20396;-76
2022/04/02 07:07:04;;;;;;;;;;;3.00;99.90;;;;;;4973992;28;19928;-76
2022/04/02 07:09:29;;;;;;;;;;;3.10;99.90;;;;;;4974329;28;20000;-76
2022/04/02 07:11:55;;;;;;;;;;;3.20;99.90;;;;;;4975634;28;19993;-77
2022/04/02 07:14:21;;;;;;;;;;;3.30;99.90;;;;;;4978038;28;20013;-78
2022/04/02 07:16:47;;;;;;;;;;;3.40;99.90;;;;;;4977973;28;19964;-80
2022/04/02 07:19:13;;;;;;;;;;;3.50;99.90;;;;;;4978008;28;19996;-79
2022/04/02 07:21:40;;;;;;;;;;;3.50;99.90;;;;;;4978858;28;19926;-79
2022/04/02 07:24:06;;;;;;;;;;;3.60;99.90;;;;;;4968156;28;19929;-80
2022/04/02 07:26:32;;;;;;;;;;;3.70;99.90;;;;;;4958654;28;19946;-80
2022/04/02 07:28:58;;;;;;;;;;;3.80;99.90;;;;;;4943814;28;19940;-80
2022/04/02 07:31:23;;;;;;;;;;;3.90;99.90;;;;;;4961262;28;19922;-81
2022/04/02 07:33:49;;;;;;;;;;;4.00;99.90;;;;;;4960863;28;19928;-81
2022/04/02 07:36:19;;;;;;;;;;;4.10;99.90;;;;;;4945666;28;20021;-81
2022/04/02 07:38:44;;;;;;;;;;;4.30;99.90;;;;;;4946521;28;19928;-81
2022/04/02 07:41:17;;;;;;;;;;;4.50;99.90;;;;;;4963000;28;20299;-81
2022/04/02 07:43:46;;;;;;;;;;;4.60;99.90;;;;;;4962686;28;19922;-81
2022/04/02 07:46:14;;;;;;;;;;;4.80;99.90;;;;;;4961216;28;20346;-80
2022/04/02 07:48:41;;;;;;;;;;;4.90;99.90;;;;;;4945872;28;19976;-80
2022/04/02 07:51:09;;;;;;;;;;;5.00;99.90;;;;;;4959620;28;19976;-80
2022/04/02 07:53:36;;;;;;;;;;;5.10;99.90;;;;;;4960348;28;19977;-81
2022/04/02 07:56:02;;;;;;;;;;;5.20;99.90;;;;;;4959339;28;19926;-78
2022/04/02 07:58:29;;;;;;;;;;;5.20;99.90;;;;;;4957847;28;19926;-78
2022/04/02 08:00:55;;;;;;;;;;;5.30;99.90;;;;;;4957963;28;20249;-78
2022/04/02 08:03:23;;;;;;;;;;;5.30;99.90;;;;;;4958764;28;19926;-79
2022/04/02 08:05:49;;;;;;;;;;;5.40;99.90;;;;;;4943305;28;20273;-79
2022/04/02 08:08:14;;;;;;;;;;;5.50;99.90;;;;;;4958928;28;19923;-80
2022/04/02 08:10:45;;;;;;;;;;;5.70;99.90;;;;;;4959067;28;19955;-79
2022/04/02 08:13:13;;;;;;;;;;;5.80;99.90;;;;;;4958961;28;19930;-79
2022/04/02 08:15:39;;;;;;;;;;;5.70;99.90;;;;;;4958028;28;19967;-79
2022/04/02 08:18:06;;;;;;;;;;;5.70;99.90;;;;;;4958638;28;19926;-79
2022/04/02 08:20:32;;;;;;;;;;;5.70;99.90;;;;;;4957854;28;19933;-78
2022/04/02 08:22:57;;;;;;;;;;;5.60;99.90;;;;;;4941680;28;19922;-78
2022/04/02 08:25:23;;;;;;;;;;;5.70;99.90;;;;;;4941304;28;19922;-79
2022/04/02 08:27:54;;;;;;;;;;;5.80;99.90;;;;;;4958046;28;20297;-78
2022/04/02 08:30:28;;;;;;;;;;;5.80;99.90;;;;;;4957368;28;19929;-78
2022/04/02 08:33:12;;;;;;;;;;;5.80;99.90;;;;;;4957499;28;19922;-78
2022/04/02 08:35:56;;;;;;;;;;;5.70;99.90;;;;;;4956863;28;20041;-79
2022/04/02 08:38:26;;;;;;;;;;;5.80;99.90;;;;;;4973588;28;19972;-77
2022/04/02 08:41:11;;;;;;;;;;;6.00;99.90;;;;;;4957017;28;19929;-78
2022/04/02 08:43:37;;;;;;;;;;;6.00;99.90;;;;;;4937458;28;19923;-78
2022/04/02 08:46:08;;;;;;;;;;;5.90;99.90;;;;;;4956616;28;19922;-78
2022/04/02 08:48:35;;;;;;;;;;;5.70;99.90;;;;;;4956863;28;19922;-78
2022/04/02 08:51:12;;;;;;;;;;;5.60;99.90;;;;;;4956684;28;20021;-78
2022/04/02 08:53:43;;;;;;;;;;;5.70;99.90;;;;;;4956633;28;19922;-78
2022/04/02 08:56:09;;;;;;;;;;;5.80;99.90;;;;;;4956392;28;20328;-78
2022/04/02 08:58:44;;;;;;;;;;;5.70;99.90;;;;;;4957257;28;19922;-78
2022/04/02 09:01:11;;;;;;;;;;;5.70;99.90;;;;;;4959917;28;19926;-78
2022/04/02 09:03:55;;;;;;;;;;;5.60;99.90;;;;;;4961403;28;19933;-77
2022/04/02 09:06:40;;;;;;;;;;;5.40;99.90;;;;;;4962277;28;19967;-78
2022/04/02 09:09:06;;;;;;;;;;;5.20;99.90;;;;;;4957524;28;19974;-78
2022/04/02 09:11:45;;;;;;;;;;;5.10;99.90;;;;;;4956503;28;19930;-78
2022/04/02 09:14:26;;;;;;;;;;;5.00;99.90;;;;;;4956645;28;19969;-78
2022/04/02 09:17:06;;;;;;;;;;;5.10;99.90;;;;;;4940491;28;20447;-78
2022/04/02 09:19:49;;;;;;;;;;;5.10;99.90;;;;;;4957946;28;19922;-78
2022/04/02 09:22:35;;;;;;;;;;;5.10;99.90;;;;;;4957782;28;20253;-77
2022/04/02 09:25:04;;;;;;;;;;;5.10;99.90;;;;;;4957234;28;19948;-78
2022/04/02 09:27:39;;;;;;;;;;;5.00;99.90;;;;;;4956045;28;20340;-77
2022/04/02 09:30:12;;;;;;;;;;;5.10;99.90;;;;;;4937373;29;19930;-77
2022/04/02 09:32:50;;;;;;;;;;;5.00;99.90;;;;;;4921872;29;19923;-78
2022/04/02 09:35:22;;;;;;;;;;;5.10;99.90;;;;;;4936764;29;19923;-78
2022/04/02 09:38:00;;;;;;;;;;;5.10;99.90;;;;;;4937066;29;19926;-78
2022/04/02 09:40:33;;;;;;;;;;;5.10;99.90;;;;;;4937269;29;19941;-79
2022/04/02 09:43:00;;;;;;;;;;;5.00;98.00;;;;;;4952240;28;19945;-78
2022/04/02 09:45:31;;;;;;;;;;;4.90;95.40;;;;;;4956179;28;19972;-78
2022/04/02 09:48:03;;;;;;;;;;;4.80;97.30;;;;;;4956231;28;19923;-77
2022/04/02 09:50:29;;;;;;;;;;;4.80;99.30;;;;;;4956281;28;19976;-77
2022/04/02 09:52:55;;;;;;;;;;;4.80;99.90;;;;;;4956409;28;19973;-77
2022/04/02 09:55:26;;;;;;;;;;;4.80;99.90;;;;;;4956268;28;19933;-77
2022/04/02 09:57:51;;;;;;;;;;;4.80;99.50;;;;;;4956069;28;19945;-77
2022/04/02 10:00:18;;;;;;;;;;;4.80;99.30;;;;;;4955777;28;20384;-77
2022/04/02 10:03:08;;;;;;;;;;;4.90;95.20;;;;;;4955913;28;19977;-77
2022/04/02 10:05:43;;;;;;;;;;;5.00;96.90;;;;;;4950536;28;19923;-77
2022/04/02 10:08:12;;;;;;;;;;;5.10;99.30;;;;;;4956048;28;20084;-77
2022/04/02 10:10:38;;;;;;;;;;;5.20;98.90;;;;;;4962977;28;20296;-77
2022/04/02 10:13:05;;;;;;;;;;;5.30;99.70;;;;;;4939551;28;19926;-77
2022/04/02 10:15:32;;;;;;;;;;;5.40;99.90;;;;;;4966146;28;20396;-77
2022/04/02 10:18:01;;;;;;;;;;;5.70;99.90;;;;;;4958414;28;19929;-78
2022/04/02 10:20:31;;;;;;;;;;;6.00;99.90;;;;;;4951013;28;20389;-79
2022/04/02 10:23:03;;;;;;;;;;;6.50;99.20;;;;;;4969341;28;20016;-79
2022/04/02 10:25:32;;;;;;;;;;;7.00;98.50;;;;;;4966414;28;19921;-79
2022/04/02 10:27:58;;;;;;;;;;;7.20;93.70;;;;;;4966198;28;19922;-78
2022/04/02 10:30:24;;;;;;;;;;;7.00;94.30;;;;;;4956928;28;20036;-78
2022/04/02 10:32:50;;;;;;;;;;;6.70;94.70;;;;;;4981181;28;20401;-78
2022/04/02 10:35:15;;;;;;;;;;;6.40;95.40;;;;;;4957127;28;19965;-78
2022/04/02 10:37:41;;;;;;;;;;;6.10;95.80;;;;;;4971401;28;20393;-78
2022/04/02 10:40:08;;;;;;;;;;;5.80;97.10;;;;;;4958775;28;20056;-79
2022/04/02 10:42:36;;;;;;;;;;;5.70;98.30;;;;;;4965722;28;20471;-79
2022/04/02 10:45:07;;;;;;;;;;;5.50;99.70;;;;;;4961911;28;19922;-79
2022/04/02 10:47:37;;;;;;;;;;;5.30;99.90;;;;;;4982360;28;19984;-80
2022/04/02 10:50:04;;;;;;;;;;;5.00;97.80;;;;;;4986043;28;19928;-80
2022/04/02 10:52:30;;;;;;;;;;;5.00;99.90;;;;;;4979305;28;20004;-80
2022/04/02 10:54:56;;;;;;;;;;;5.00;99.90;;;;;;4966825;28;19922;-80
2022/04/02 10:57:22;;;;;;;;;;;5.10;99.90;;;;;;4960847;28;19967;-75
2022/04/02 10:59:50;;;;;;;;;;;5.20;94.20;;;;;;4976276;28;19977;-75
2022/04/02 11:02:22;;;;;;;;;;;5.30;91.10;;;;;;4963691;28;20356;-76
2022/04/02 11:04:54;;;;;;;;;;;5.50;82.00;;;;;;4969687;28;20388;-76
2022/04/02 11:07:27;;;;;;;;;;;5.70;85.90;;;;;;4977750;28;19922;-74
2022/04/02 11:09:53;;;;;;;;;;;5.80;87.40;;;;;;4969382;28;20021;-74
2022/04/02 11:12:26;;;;;;;;;;;5.90;71.60;;;;;;4946119;28;19934;-74
2022/04/02 11:14:53;;;;;;;;;;;5.90;73.20;;;;;;4973149;28;19925;-74
2022/04/02 11:17:28;;;;;;;;;;;6.00;71.00;;;;;;4955224;28;19921;-76
2022/04/02 11:20:00;;;;;;;;;;;6.30;76.20;;;;;;4983816;28;19930;-73
2022/04/02 11:22:34;;;;;;;;;;;6.80;87.70;;;;;;4977894;28;19926;-75
2022/04/02 11:25:05;;;;;;;;;;;7.10;82.90;;;;;;4967620;28;19922;-75
2022/04/02 11:27:35;;;;;;;;;;;6.80;82.00;;;;;;4968130;28;19925;-75
2022/04/02 11:30:03;;;;;;;;;;;6.50;85.10;;;;;;4965014;28;20032;-75
2022/04/02 11:32:35;;;;;;;;;;;6.30;85.80;;;;;;4953360;28;19921;-75
2022/04/02 11:35:01;;;;;;;;;;;6.20;87.30;;;;;;4977559;28;20444;-75
2022/04/02 11:37:29;;;;;;;;;;;6.20;87.00;;;;;;4977144;28;20049;-76
2022/04/02 11:39:57;;;;;;;;;;;6.20;86.40;;;;;;4971618;28;19922;-75
2022/04/02 11:42:26;;;;;;;;;;;6.30;86.40;;;;;;4957173;28;20044;-74
2022/04/02 11:44:55;;;;;;;;;;;6.30;82.70;;;;;;4957883;28;19994;-74
2022/04/02 11:47:25;;;;;;;;;;;6.40;84.00;;;;;;4957792;28;19933;-74
2022/04/02 11:49:53;;;;;;;;;;;6.40;87.30;;;;;;4957495;28;19926;-74
2022/04/02 11:52:18;;;;;;;;;;;6.50;82.70;;;;;;4958217;28;19922;-74
2022/04/02 11:54:47;;;;;;;;;;;6.50;81.40;;;;;;4972728;28;20046;-74
2022/04/02 11:57:12;;;;;;;;;;;6.40;83.80;;;;;;4955836;28;19922;-75
2022/04/02 11:59:49;;;;;;;;;;;6.40;86.70;;;;;;4973627;28;20012;-75
2022/04/02 12:02:33;;;;;;;;;;;6.50;85.50;;;;;;4957532;28;19974;-73
2022/04/02 12:05:02;;;;;;;;;;;6.50;85.90;;;;;;4974732;28;19922;-72
2022/04/02 12:07:41;;;;;;;;;;;6.80;87.60;;;;;;4964708;28;20375;-73
2022/04/02 12:10:11;;;;;;;;;;;7.40;79.60;;;;;;4973823;28;19945;-72
2022/04/02 12:12:41;;;;;;;;;;;7.80;75.50;;;;;;4973703;28;20010;-72
2022/04/02 12:15:11;;;;;;;;;;;8.10;70.20;;;;;;4977455;28;20028;-72
2022/04/02 12:17:38;;;;;;;;;;;7.90;69.20;;;;;;4976329;28;20406;-74
2022/04/02 12:20:04;;;;;;;;;;;7.70;68.40;;;;;;4960475;28;20372;-74
2022/04/02 12:22:32;;;;;;;;;;;7.40;74.10;;;;;;4958681;28;20377;-74
2022/04/02 12:24:58;;;;;;;;;;;7.20;69.70;;;;;;4957002;28;19922;-73
2022/04/02 12:27:25;;;;;;;;;;;7.00;66.00;;;;;;4967912;28;20021;-73
2022/04/02 12:29:52;;;;;;;;;;;6.80;69.80;;;;;;4957255;28;19929;-74
2022/04/02 12:32:29;;;;;;;;;;;6.70;71.30;;;;;;4941154;28;20356;-75
2022/04/02 12:35:02;;;;;;;;;;;6.60;78.20;;;;;;4972308;28;19929;-75
2022/04/02 12:37:29;;;;;;;;;;;6.60;76.00;;;;;;4974252;28;19921;-75
2022/04/02 12:39:54;;;;;;;;;;;6.60;75.60;;;;;;4982055;28;19929;-74
2022/04/02 12:42:39;;;;;;;;;;;6.70;76.00;;;;;;4975999;28;19926;-74
2022/04/02 12:45:05;;;;;;;;;;;6.70;82.50;;;;;;4975823;28;20291;-74
2022/04/02 12:47:32;;;;;;;;;;;6.80;78.70;;;;;;4976059;28;20425;-74
2022/04/02 12:50:08;;;;;;;;;;;6.90;74.30;;;;;;4973626;28;19922;-75
2022/04/02 12:52:42;;;;;;;;;;;7.10;80.10;;;;;;4964341;28;19922;-73
2022/04/02 12:55:08;;;;;;;;;;;7.30;75.40;;;;;;4976181;28;19922;-72
2022/04/02 12:57:34;;;;;;;;;;;7.20;71.40;;;;;;4956672;28;20012;-72
2022/04/02 12:59:59;;;;;;;;;;;6.90;64.80;;;;;;4975144;28;19922;-72
2022/04/02 13:02:26;;;;;;;;;;;6.60;64.50;;;;;;4971428;28;20415;-72
2022/04/02 13:04:55;;;;;;;;;;;6.50;64.50;;;;;;4966852;28;19972;-72
2022/04/02 13:07:21;;;;;;;;;;;6.30;64.40;;;;;;4968990;28;20292;-72
2022/04/02 13:09:51;;;;;;;;;;;6.30;68.40;;;;;;4964482;28;20009;-72
2022/04/02 13:12:21;;;;;;;;;;;6.30;69.30;;;;;;4970052;28;19997;-72
2022/04/02 13:14:50;;;;;;;;;;;6.40;68.20;;;;;;4973727;28;19922;-72
2022/04/02 13:17:17;;;;;;;;;;;6.50;69.30;;;;;;4966838;28;19922;-72
2022/04/02 13:22:49;;;;;;;;;;;6.60;68.40;;;;;;4969650;28;20393;-76
2022/04/02 13:25:22;;;;;;;;;;;6.60;67.60;;;;;;4974158;28;19929;-76
2022/04/02 13:27:48;;;;;;;;;;;6.60;64.50;;;;;;4961962;28;20367;-78
2022/04/02 13:30:14;;;;;;;;;;;6.60;64.50;;;;;;4953496;28;19926;-75
2022/04/02 13:33:00;;;;;;;;;;;6.60;60.60;;;;;;4970219;28;19922;-75
2022/04/02 13:35:31;;;;;;;;;;;6.50;61.80;;;;;;4975109;28;21296;-77
2022/04/02 13:38:00;;;;;;;;;;;6.50;62.50;;;;;;4975177;28;19922;-77
2022/04/02 13:40:28;;;;;;;;;;;6.60;63.50;;;;;;4967236;28;19922;-77
2022/04/02 13:42:58;;;;;;;;;;;6.90;59.90;;;;;;4975251;28;19926;-77
2022/04/02 13:45:24;;;;;;;;;;;7.10;60.40;;;;;;4964097;28;20292;-77
2022/04/02 13:47:54;;;;;;;;;;;7.20;60.10;;;;;;4953576;28;19977;-77
2022/04/02 13:50:20;;;;;;;;;;;7.20;59.70;;;;;;4965054;28;19930;-77
2022/04/02 13:52:53;;;;;;;;;;;7.10;60.00;;;;;;4966977;28;19922;-77
2022/04/02 13:55:22;;;;;;;;;;;7.10;60.30;;;;;;4945870;28;20032;-77
2022/04/02 13:57:49;;;;;;;;;;;7.10;61.30;;;;;;4944767;28;19922;-77
2022/04/02 14:00:15;;;;;;;;;;;7.50;61.60;;;;;;4963358;28;20325;-77
2022/04/02 14:02:41;;;;;;;;;;;8.10;60.60;;;;;;4977159;28;19988;-77
2022/04/02 14:05:18;;;;;;;;;;;8.20;57.30;;;;;;4959164;28;20401;-78
2022/04/02 14:08:04;;;;;;;;;;;7.80;58.20;;;;;;4962233;28;20392;-77
2022/04/02 14:10:33;;;;;;;;;;;7.50;58.90;;;;;;4948660;28;20384;-77
2022/04/02 14:12:59;;;;;;;;;;;7.30;58.10;;;;;;4950377;28;19933;-77
2022/04/02 14:15:26;;;;;;;;;;;7.20;59.50;;;;;;4956435;28;19984;-77
2022/04/02 14:17:57;;;;;;;;;;;7.10;60.00;;;;;;4963064;28;19925;-77
2022/04/02 14:20:22;;;;;;;;;;;7.00;60.80;;;;;;4953712;28;20368;-77
2022/04/02 14:22:48;;;;;;;;;;;7.00;62.10;;;;;;4966096;28;19926;-77
2022/04/02 14:25:24;;;;;;;;;;;7.00;62.50;;;;;;4954097;28;19961;-77
2022/04/02 14:28:07;;;;;;;;;;;7.00;60.80;;;;;;4964916;28;19975;-77
2022/04/02 14:30:51;;;;;;;;;;;6.80;63.50;;;;;;4964189;28;19921;-76
2022/04/02 14:33:35;;;;;;;;;;;6.60;62.50;;;;;;4972932;28;20030;-74
2022/04/02 14:36:19;;;;;;;;;;;6.50;63.70;;;;;;4963951;28;20028;-79
2022/04/02 14:38:48;;;;;;;;;;;6.30;63.00;;;;;;4958191;28;19930;-74